| time (UTC) | temp F | wind direction | speed MPH | gust MPH | rain 1hr in | rain 24hr in | rain mn in | humidity % | barometer mb |
| 20260507093016 | 43 | 61 | 20.0 | 28.0 | 0.00 | 0.00 | 0.00 | 70 | 1022.1 |
| 20260507091517 | 44 | 43 | 20.0 | 27.0 | 0.00 | 0.00 | 0.00 | 70 | 1022.1 |
| 20260507090008 | 43 | 23 | 18.0 | 22.0 | 0.00 | 0.00 | 0.00 | 71 | 1022.3 |
| 20260507084526 | 42 | 96 | 15.0 | 19.0 | 0.00 | 0.00 | 0.00 | 70 | 1022.5 |
| 20260507083021 | 42 | 70 | 13.0 | 21.0 | 0.00 | 0.00 | 0.00 | 70 | 1022.5 |
| 20260507081522 | 43 | 24 | 14.0 | 19.0 | 0.00 | 0.00 | 0.00 | 70 | 1022.5 |
| 20260507080018 | 43 | 54 | 15.0 | 21.0 | 0.00 | 0.00 | 0.00 | 69 | 1022.6 |
| 20260507074516 | 44 | 58 | 17.0 | 22.0 | 0.00 | 0.00 | 0.00 | 68 | 1022.7 |
| 20260507073026 | 45 | 71 | 17.0 | 22.0 | 0.00 | 0.00 | 0.00 | 67 | 1022.7 |
| 20260507071556 | 43 | 17 | 16.0 | 22.0 | 0.00 | 0.00 | 0.00 | 71 | 1022.9 |
| 20260507070025 | 44 | 77 | 18.0 | 22.0 | 0.00 | 0.00 | 0.00 | 69 | 1022.7 |
| 20260507064523 | 44 | 47 | 17.0 | 24.0 | 0.00 | 0.00 | 0.00 | 70 | 1022.5 |
| 20260507063020 | 44 | 67 | 17.0 | 27.0 | 0.00 | 0.00 | 0.00 | 70 | 1022.4 |
| 20260507061519 | 46 | 89 | 16.0 | 29.0 | 0.00 | 0.00 | 0.00 | 67 | 1022.3 |
| 20260507060026 | 48 | 77 | 17.0 | 23.0 | 0.00 | 0.00 | 0.00 | 63 | 1022.3 |
| 20260507054528 | 49 | 70 | 14.0 | 22.0 | 0.00 | 0.00 | 0.00 | 62 | 1022.1 |
| 20260507053025 | 49 | 73 | 16.0 | 23.0 | 0.00 | 0.00 | 0.00 | 61 | 1022.1 |
| 20260507051531 | 49 | 74 | 20.0 | 27.0 | 0.00 | 0.00 | 0.00 | 61 | 1021.9 |
| 20260507050032 | 50 | 32 | 19.0 | 27.0 | 0.00 | 0.00 | 0.00 | 60 | 1021.8 |
| 20260507044503 | 50 | 57 | 19.0 | 27.0 | 0.00 | 0.00 | 0.00 | 59 | 1021.5 |
| 20260507043009 | 51 | 66 | 18.0 | 43.0 | 0.00 | 0.00 | 0.00 | 56 | 1021.3 |
| 20260507041504 | 56 | 150 | 7.0 | 13.0 | 0.00 | 0.00 | 0.00 | 33 | 1021.5 |
| 20260507040004 | 58 | 44 | 10.0 | 15.0 | 0.00 | 0.00 | 0.00 | 30 | 1020.7 |
| 20260507034505 | 58 | 109 | 0.0 | 10.0 | 0.00 | 0.00 | 0.00 | 21 | 1020.3 |
| 20260507033013 | 60 | 86 | 6.0 | 13.0 | 0.00 | 0.00 | 0.00 | 19 | 1019.5 |
| 20260507031503 | 59 | 8 | 8.0 | 13.0 | 0.00 | 0.00 | 0.00 | 20 | 1019.3 |
| 20260507030004 | 59 | 53 | 8.0 | 14.0 | 0.00 | 0.00 | 0.00 | 20 | 1019.1 |
| 20260507024504 | 59 | 52 | 7.0 | 13.0 | 0.00 | 0.00 | 0.00 | 20 | 1018.8 |
| 20260507023011 | 59 | 41 | 8.0 | 12.0 | 0.00 | 0.00 | 0.00 | 20 | 1018.6 |
| 20260507021504 | 59 | 65 | 10.0 | 13.0 | 0.00 | 0.00 | 0.00 | 21 | 1018.3 |
| 20260507020006 | 60 | 61 | 8.0 | 12.0 | 0.00 | 0.00 | 0.00 | 20 | 1018.1 |
| 20260507014507 | 62 | 72 | 7.0 | 12.0 | 0.00 | 0.00 | 0.00 | 19 | 1017.9 |
| 20260507013004 | 63 | 63 | 9.0 | 17.0 | 0.00 | 0.00 | 0.00 | 18 | 1017.8 |
| 20260507011506 | 65 | 88 | 15.0 | 22.0 | 0.00 | 0.00 | 0.00 | 17 | 1017.6 |
| 20260507010007 | 66 | 60 | 13.0 | 25.0 | 0.00 | 0.00 | 0.00 | 17 | 1017.6 |
| 20260507004504 | 66 | 59 | 11.0 | 20.0 | 0.00 | 0.00 | 0.00 | 17 | 1017.5 |
| 20260507003008 | 66 | 55 | 12.0 | 20.0 | 0.00 | 0.00 | 0.00 | 16 | 1017.4 |
| 20260507001504 | 67 | 26 | 17.0 | 25.0 | 0.00 | 0.00 | 0.00 | 16 | 1017.2 |
| 20260507000011 | 67 | 56 | 15.0 | 23.0 | 0.00 | 0.00 | 0.00 | 16 | 1017.2 |
| 20260506234509 | 67 | 58 | 12.0 | 27.0 | 0.00 | 0.00 | 0.00 | 16 | 1017.0 |
| 20260506233008 | 67 | 55 | 11.0 | 21.0 | 0.00 | 0.00 | 0.00 | 17 | 1017.0 |
| 20260506231510 | 67 | 63 | 14.0 | 23.0 | 0.00 | 0.00 | 0.00 | 17 | 1017.0 |
| 20260506230009 | 68 | 58 | 17.0 | 24.0 | 0.00 | 0.00 | 0.00 | 17 | 1017.0 |
| 20260506224507 | 68 | 110 | 19.0 | 30.0 | 0.00 | 0.00 | 0.00 | 16 | 1016.7 |
| 20260506223009 | 68 | 97 | 18.0 | 26.0 | 0.00 | 0.00 | 0.00 | 16 | 1016.8 |
| 20260506221510 | 67 | 105 | 17.0 | 28.0 | 0.00 | 0.00 | 0.00 | 16 | 1016.8 |
| 20260506220028 | 67 | 82 | 16.0 | 30.0 | 0.00 | 0.00 | 0.00 | 16 | 1016.8 |
| 20260506214511 | 67 | 54 | 18.0 | 26.0 | 0.00 | 0.00 | 0.00 | 16 | 1017.1 |
| 20260506213013 | 66 | 64 | 18.0 | 28.0 | 0.00 | 0.00 | 0.00 | 17 | 1017.1 |
| 20260506211513 | 67 | 50 | 17.0 | 26.0 | 0.00 | 0.00 | 0.00 | 17 | 1017.2 |
| 20260506210015 | 66 | 85 | 13.0 | 26.0 | 0.00 | 0.00 | 0.00 | 18 | 1017.2 |
| 20260506204514 | 66 | 44 | 9.0 | 29.0 | 0.00 | 0.00 | 0.00 | 18 | 1017.4 |
| 20260506203021 | 65 | 70 | 14.0 | 25.0 | 0.00 | 0.00 | 0.00 | 19 | 1017.5 |
| 20260506201516 | 65 | 65 | 19.0 | 29.0 | 0.00 | 0.00 | 0.00 | 19 | 1017.6 |
| 20260506200020 | 64 | 141 | 11.0 | 24.0 | 0.00 | 0.00 | 0.00 | 20 | 1017.6 |
| 20260506194518 | 64 | 74 | 16.0 | 27.0 | 0.00 | 0.00 | 0.00 | 20 | 1017.8 |
| 20260506193009 | 63 | 75 | 14.0 | 25.0 | 0.00 | 0.00 | 0.00 | 22 | 1017.7 |
| 20260506191508 | 64 | 56 | 20.0 | 26.0 | 0.00 | 0.00 | 0.00 | 21 | 1017.8 |
| 20260506190006 | 63 | 81 | 12.0 | 35.0 | 0.00 | 0.00 | 0.00 | 23 | 1018.0 |
| 20260506184504 | 63 | 89 | 15.0 | 25.0 | 0.00 | 0.00 | 0.00 | 24 | 1018.2 |
| 20260506183005 | 62 | 75 | 16.0 | 27.0 | 0.00 | 0.00 | 0.00 | 22 | 1018.4 |
| 20260506181503 | 62 | 70 | 19.0 | 27.0 | 0.00 | 0.00 | 0.00 | 23 | 1018.6 |
| 20260506180012 | 61 | 70 | 14.0 | 26.0 | 0.00 | 0.00 | 0.00 | 25 | 1018.7 |
| 20260506174508 | 61 | 119 | 16.0 | 23.0 | 0.00 | 0.00 | 0.00 | 23 | 1018.8 |
| 20260506173009 | 61 | 88 | 16.0 | 25.0 | 0.00 | 0.00 | 0.00 | 25 | 1018.9 |
| 20260506171504 | 60 | 107 | 14.0 | 26.0 | 0.00 | 0.00 | 0.00 | 27 | 1018.8 |
| 20260506170006 | 59 | 75 | 18.0 | 24.0 | 0.00 | 0.00 | 0.00 | 28 | 1018.8 |
| 20260506164505 | 59 | 34 | 16.0 | 26.0 | 0.00 | 0.00 | 0.00 | 27 | 1018.8 |
| 20260506163014 | 58 | 51 | 15.0 | 23.0 | 0.00 | 0.00 | 0.00 | 29 | 1018.6 |
| 20260506161512 | 58 | 86 | 15.0 | 27.0 | 0.00 | 0.00 | 0.00 | 31 | 1018.6 |
| 20260506160007 | 57 | 47 | 16.0 | 23.0 | 0.00 | 0.00 | 0.00 | 33 | 1018.7 |
| 20260506154508 | 56 | 54 | 15.0 | 22.0 | 0.00 | 0.00 | 0.00 | 37 | 1018.7 |
| 20260506153009 | 55 | 77 | 14.0 | 20.0 | 0.00 | 0.00 | 0.00 | 41 | 1018.6 |
| 20260506151520 | 55 | 59 | 12.0 | 18.0 | 0.00 | 0.00 | 0.00 | 43 | 1018.7 |
| 20260506150019 | 54 | 71 | 10.0 | 16.0 | 0.00 | 0.00 | 0.00 | 45 | 1018.6 |
| 20260506144520 | 53 | 119 | 9.0 | 17.0 | 0.00 | 0.00 | 0.00 | 48 | 1018.8 |
| 20260506143012 | 53 | 74 | 10.0 | 19.0 | 0.00 | 0.00 | 0.00 | 50 | 1018.6 |
| 20260506141510 | 52 | 92 | 11.0 | 15.0 | 0.00 | 0.00 | 0.00 | 52 | 1018.6 |
| 20260506140007 | 52 | 77 | 8.0 | 12.0 | 0.00 | 0.00 | 0.00 | 53 | 1018.5 |
| 20260506134522 | 52 | 103 | 0.0 | 7.0 | 0.00 | 0.00 | 0.00 | 52 | 1018.4 |
| 20260506133020 | 52 | 133 | 0.0 | 4.0 | 0.00 | 0.00 | 0.00 | 53 | 1018.2 |
| 20260506131522 | 49 | 41 | 0.0 | 3.0 | 0.00 | 0.00 | 0.00 | 55 | 1018.0 |
| 20260506130020 | 48 | 16 | 6.0 | 8.0 | 0.00 | 0.00 | 0.00 | 57 | 1018.0 |
| 20260506124510 | 46 | 30 | 0.0 | 3.0 | 0.00 | 0.00 | 0.00 | 59 | 1017.8 |
| 20260506123008 | 44 | 346 | 6.0 | 6.0 | 0.00 | 0.00 | 0.00 | 63 | 1017.7 |
| 20260506121528 | 45 | 349 | 0.0 | 0.0 | 0.00 | 0.00 | 0.00 | 63 | 1017.3 |
| 20260506120029 | 46 | 53 | 0.0 | 0.0 | 0.00 | 0.00 | 0.00 | 62 | 1017.3 |
| 20260506114521 | 46 | 54 | 0.0 | 0.0 | 0.00 | 0.00 | 0.00 | 62 | 1017.3 |
| 20260506113022 | 47 | 56 | 0.0 | 0.0 | 0.00 | 0.00 | 0.00 | 61 | 1017.4 |
| 20260506111515 | 47 | 56 | 0.0 | 0.0 | 0.00 | 0.00 | 0.00 | 60 | 1017.2 |
| 20260506110014 | 48 | 51 | 0.0 | 7.0 | 0.00 | 0.00 | 0.00 | 59 | 1017.0 |
| 20260506104527 | 49 | 61 | 0.0 | 0.0 | 0.00 | 0.00 | 0.00 | 57 | 1017.0 |
| 20260506103006 | 50 | 65 | 4.0 | 8.0 | 0.00 | 0.00 | 0.00 | 56 | 1016.8 |
| 20260506101523 | 50 | 46 | 0.0 | 0.0 | 0.00 | 0.00 | 0.00 | 56 | 1016.9 |
| 20260506100020 | 50 | 67 | 0.0 | 0.0 | 0.00 | 0.00 | 0.00 | 56 | 1016.7 |
| 20260506094520 | 50 | 49 | 0.0 | 0.0 | 0.00 | 0.00 | 0.00 | 57 | 1016.7 |